MSR638 ORBI-HECA
Flight info
| Callsign | MSR638 |
|---|---|
| Flight time | N/A |
| Altitude | 36000 |
| Route | SILBO L200 DAXEN/N0459F370 L200 LUDAN/N0457F380 DCT ELETA DCT ULINA DCT MENLI DCT CI05R |
| Aircraft | B738/M-SDE2E3FGHIRWXY/LB1 |
Departure
| Time | 2026-05-04 17:14 |
|---|---|
| Airport | Baghdad International Airport / New Al Muthana Air Base (ORBI) |
Arrival
| Time | N/A |
|---|---|
| Airport | Cairo International Airport (HECA) |
| Time | Latitude | Longitude | Altitude | Speed | Heading |
|---|---|---|---|---|---|
| 2026-05-04 16:46 | 33.26994 | 44.23016 | 139 ft | 0 kts | 137° |
| 2026-05-04 17:03 | 33.27003 | 44.23007 | 139 ft | 4 kts | 138° |
| 2026-05-04 17:03 | 33.27042 | 44.22964 | 138 ft | 4 kts | 134° |
| 2026-05-04 17:04 | 33.27073 | 44.22913 | 138 ft | 4 kts | 107° |
| 2026-05-04 17:04 | 33.27071 | 44.22879 | 138 ft | 0 kts | 59° |
| 2026-05-04 17:07 | 33.27091 | 44.22917 | 138 ft | 9 kts | 58° |
| 2026-05-04 17:07 | 33.27118 | 44.22970 | 138 ft | 13 kts | 61° |
| 2026-05-04 17:07 | 33.27182 | 44.23107 | 139 ft | 14 kts | 60° |
| 2026-05-04 17:07 | 33.27230 | 44.23205 | 139 ft | 14 kts | 59° |
| 2026-05-04 17:08 | 33.27281 | 44.23311 | 139 ft | 16 kts | 60° |
| 2026-05-04 17:08 | 33.27338 | 44.23571 | 138 ft | 18 kts | 140° |
| 2026-05-04 17:08 | 33.27235 | 44.23644 | 139 ft | 17 kts | 150° |
| 2026-05-04 17:09 | 33.27134 | 44.23714 | 139 ft | 16 kts | 150° |
| 2026-05-04 17:09 | 33.27037 | 44.23780 | 139 ft | 16 kts | 150° |
| 2026-05-04 17:09 | 33.26942 | 44.23846 | 139 ft | 17 kts | 150° |
| 2026-05-04 17:10 | 33.26701 | 44.24011 | 139 ft | 23 kts | 150° |
| 2026-05-04 17:10 | 33.26278 | 44.24301 | 138 ft | 25 kts | 150° |
| 2026-05-04 17:11 | 33.26134 | 44.24399 | 139 ft | 23 kts | 150° |
| 2026-05-04 17:11 | 33.25998 | 44.24493 | 139 ft | 22 kts | 150° |
| 2026-05-04 17:11 | 33.25736 | 44.24674 | 139 ft | 21 kts | 150° |
| 2026-05-04 17:12 | 33.25610 | 44.24759 | 139 ft | 20 kts | 150° |
| 2026-05-04 17:12 | 33.25371 | 44.24923 | 138 ft | 19 kts | 150° |
| 2026-05-04 17:13 | 33.25275 | 44.25232 | 137 ft | 17 kts | 20° |
| 2026-05-04 17:14 | 33.26482 | 44.24423 | 141 ft | 152 kts | 331° |
| 2026-05-04 17:14 | 33.27472 | 44.23765 | 649 ft | 165 kts | 333° |
| 2026-05-04 17:14 | 33.29259 | 44.22374 | 2243 ft | 161 kts | 301° |
| 2026-05-04 17:15 | 33.29450 | 44.20945 | 2494 ft | 197 kts | 258° |
| 2026-05-04 17:15 | 33.28118 | 44.17634 | 2915 ft | 242 kts | 245° |
| 2026-05-04 17:16 | 33.26471 | 44.13849 | 3808 ft | 264 kts | 245° |
| 2026-05-04 17:16 | 33.23987 | 44.08097 | 6383 ft | 259 kts | 242° |
| 2026-05-04 17:17 | 33.23167 | 44.06185 | 7158 ft | 259 kts | 242° |
| 2026-05-04 17:17 | 33.20747 | 44.00528 | 9671 ft | 253 kts | 241° |
| 2026-05-04 17:18 | 33.19932 | 43.98622 | 10303 ft | 259 kts | 241° |
| 2026-05-04 17:18 | 33.18150 | 43.94468 | 10640 ft | 303 kts | 241° |
| 2026-05-04 17:19 | 33.16194 | 43.89894 | 11813 ft | 312 kts | 241° |
| 2026-05-04 17:19 | 33.14226 | 43.85292 | 13272 ft | 314 kts | 241° |
| 2026-05-04 17:20 | 33.12233 | 43.80640 | 14736 ft | 314 kts | 241° |
| 2026-05-04 17:20 | 33.10223 | 43.75958 | 15989 ft | 321 kts | 241° |
| 2026-05-04 17:20 | 33.09199 | 43.73574 | 16628 ft | 324 kts | 241° |
| 2026-05-04 17:21 | 33.07143 | 43.68795 | 17924 ft | 328 kts | 241° |
| 2026-05-04 17:21 | 33.05044 | 43.63920 | 19012 ft | 334 kts | 241° |
| 2026-05-04 17:22 | 33.03978 | 43.61447 | 19621 ft | 335 kts | 241° |
| 2026-05-04 17:22 | 33.02910 | 43.58969 | 20189 ft | 337 kts | 241° |
| 2026-05-04 17:23 | 32.99719 | 43.51429 | 21745 ft | 345 kts | 247° |
| 2026-05-04 17:23 | 32.99042 | 43.48669 | 22241 ft | 351 kts | 254° |
| 2026-05-04 17:23 | 32.98508 | 43.42779 | 23261 ft | 363 kts | 266° |
| 2026-05-04 17:24 | 32.98637 | 43.39767 | 23725 ft | 364 kts | 268° |
| 2026-05-04 17:24 | 32.99106 | 43.30667 | 24881 ft | 371 kts | 268° |
| 2026-05-04 17:25 | 32.99260 | 43.27593 | 25293 ft | 373 kts | 268° |
| 2026-05-04 17:25 | 32.99556 | 43.21391 | 26098 ft | 376 kts | 268° |
| 2026-05-04 17:26 | 32.99844 | 43.15169 | 26871 ft | 378 kts | 268° |
| 2026-05-04 17:26 | 33.00269 | 43.05733 | 27864 ft | 385 kts | 268° |
| 2026-05-04 17:27 | 33.00553 | 42.99349 | 28574 ft | 387 kts | 268° |
| 2026-05-04 17:27 | 33.00835 | 42.92946 | 29209 ft | 391 kts | 268° |
| 2026-05-04 17:28 | 33.01116 | 42.86451 | 29735 ft | 395 kts | 268° |
| 2026-05-04 17:29 | 33.01539 | 42.76630 | 30804 ft | 392 kts | 268° |
| 2026-05-04 17:29 | 33.01946 | 42.66974 | 31844 ft | 388 kts | 267° |
| 2026-05-04 17:30 | 33.02340 | 42.57414 | 32980 ft | 381 kts | 267° |
| 2026-05-04 17:31 | 33.02595 | 42.51127 | 33629 ft | 380 kts | 267° |
| 2026-05-04 17:31 | 33.02969 | 42.41750 | 34434 ft | 377 kts | 266° |
| 2026-05-04 17:32 | 33.03215 | 42.35520 | 34975 ft | 374 kts | 266° |
| 2026-05-04 17:33 | 33.03625 | 42.26120 | 35334 ft | 382 kts | 267° |
| 2026-05-04 17:33 | 33.03779 | 42.22964 | 35520 ft | 382 kts | 267° |
| 2026-05-04 17:34 | 33.04233 | 42.13508 | 36004 ft | 382 kts | 267° |
| 2026-05-04 17:34 | 33.04380 | 42.10347 | 35993 ft | 383 kts | 267° |
| 2026-05-04 17:35 | 33.05096 | 41.94735 | 36001 ft | 374 kts | 267° |
| 2026-05-04 17:36 | 33.05371 | 41.88589 | 35999 ft | 372 kts | 266° |
| 2026-05-04 17:36 | 33.05643 | 41.82442 | 36015 ft | 370 kts | 266° |
| 2026-05-04 17:37 | 33.05910 | 41.76324 | 36032 ft | 369 kts | 266° |
| 2026-05-04 17:37 | 33.06174 | 41.70197 | 36020 ft | 369 kts | 266° |
| 2026-05-04 17:38 | 33.06436 | 41.64080 | 36010 ft | 370 kts | 266° |
| 2026-05-04 17:38 | 33.06651 | 41.58990 | 36033 ft | 370 kts | 266° |
| 2026-05-04 17:39 | 33.07077 | 41.48768 | 36034 ft | 373 kts | 266° |
| 2026-05-04 17:39 | 33.07290 | 41.43588 | 36025 ft | 374 kts | 266° |
| 2026-05-04 17:40 | 33.07542 | 41.37395 | 36028 ft | 375 kts | 266° |
| 2026-05-04 17:40 | 33.07792 | 41.31183 | 36036 ft | 375 kts | 266° |
| 2026-05-04 17:41 | 33.08039 | 41.24965 | 36012 ft | 376 kts | 266° |
| 2026-05-04 17:41 | 33.08283 | 41.18743 | 36027 ft | 375 kts | 266° |
| 2026-05-04 17:42 | 33.08433 | 41.12539 | 36064 ft | 374 kts | 265° |
| 2026-05-04 17:42 | 33.08515 | 41.06336 | 36043 ft | 374 kts | 265° |
| 2026-05-04 17:43 | 33.08599 | 41.00180 | 36035 ft | 374 kts | 265° |
| 2026-05-04 17:43 | 33.08689 | 40.93951 | 36036 ft | 373 kts | 265° |
| 2026-05-04 17:44 | 33.08779 | 40.87807 | 36044 ft | 373 kts | 265° |
| 2026-05-04 17:44 | 33.08867 | 40.81637 | 36040 ft | 372 kts | 265° |
| 2026-05-04 17:45 | 33.08952 | 40.75469 | 36040 ft | 372 kts | 265° |
| 2026-05-04 17:45 | 33.09034 | 40.69311 | 36045 ft | 371 kts | 265° |
| 2026-05-04 17:46 | 33.09112 | 40.63167 | 36043 ft | 371 kts | 265° |
| 2026-05-04 17:46 | 33.09188 | 40.57021 | 36051 ft | 370 kts | 265° |
| 2026-05-04 17:47 | 33.09260 | 40.50886 | 36043 ft | 370 kts | 265° |
| 2026-05-04 17:47 | 33.09329 | 40.44746 | 36058 ft | 370 kts | 264° |
| 2026-05-04 17:48 | 33.09395 | 40.38598 | 36052 ft | 371 kts | 264° |
| 2026-05-04 17:48 | 33.09459 | 40.32431 | 36056 ft | 372 kts | 264° |
| 2026-05-04 17:49 | 33.09520 | 40.26254 | 36055 ft | 373 kts | 264° |
| 2026-05-04 17:49 | 33.09578 | 40.20062 | 36063 ft | 374 kts | 264° |
| 2026-05-04 17:50 | 33.09633 | 40.13853 | 36051 ft | 374 kts | 264° |
| 2026-05-04 17:50 | 33.09685 | 40.07635 | 36062 ft | 375 kts | 264° |
| 2026-05-04 17:51 | 33.09735 | 40.01410 | 36090 ft | 376 kts | 264° |
| 2026-05-04 17:51 | 33.09781 | 39.95163 | 36069 ft | 377 kts | 264° |
| 2026-05-04 17:52 | 33.09822 | 39.88958 | 36060 ft | 377 kts | 264° |
| 2026-05-04 17:52 | 33.09855 | 39.82715 | 36065 ft | 376 kts | 264° |
| 2026-05-04 17:53 | 33.09885 | 39.76488 | 36076 ft | 376 kts | 264° |
| 2026-05-04 17:53 | 33.09912 | 39.70263 | 36074 ft | 375 kts | 264° |
| 2026-05-04 17:54 | 33.09937 | 39.64051 | 36043 ft | 374 kts | 264° |
| 2026-05-04 17:54 | 33.09958 | 39.57857 | 36102 ft | 373 kts | 264° |
| 2026-05-04 17:55 | 33.09976 | 39.51674 | 36092 ft | 373 kts | 264° |
| 2026-05-04 17:55 | 33.09991 | 39.45481 | 36082 ft | 373 kts | 264° |
| 2026-05-04 17:56 | 33.10004 | 39.39294 | 36084 ft | 373 kts | 264° |
| 2026-05-04 17:56 | 33.10013 | 39.33113 | 36121 ft | 373 kts | 264° |
| 2026-05-04 17:57 | 33.10019 | 39.26907 | 36096 ft | 374 kts | 264° |
| 2026-05-04 17:57 | 33.10022 | 39.20703 | 36089 ft | 374 kts | 264° |
| 2026-05-04 17:58 | 33.10022 | 39.14503 | 36087 ft | 374 kts | 264° |
| 2026-05-04 17:58 | 33.10019 | 39.08297 | 36060 ft | 374 kts | 264° |
| 2026-05-04 17:59 | 33.10014 | 39.02102 | 36090 ft | 373 kts | 264° |
| 2026-05-04 18:00 | 33.09687 | 38.92917 | 36100 ft | 368 kts | 256° |
| 2026-05-04 18:00 | 33.08310 | 38.87085 | 36122 ft | 365 kts | 250° |
| 2026-05-04 18:01 | 33.06686 | 38.81334 | 36106 ft | 366 kts | 250° |
| 2026-05-04 18:01 | 33.05075 | 38.75567 | 36102 ft | 367 kts | 250° |
| 2026-05-04 18:02 | 33.02656 | 38.66892 | 36093 ft | 367 kts | 250° |
| 2026-05-04 18:02 | 33.01027 | 38.61116 | 36118 ft | 368 kts | 250° |
| 2026-05-04 18:03 | 32.99387 | 38.55326 | 36109 ft | 369 kts | 250° |
| 2026-05-04 18:03 | 32.97743 | 38.49522 | 36108 ft | 370 kts | 250° |
| 2026-05-04 18:04 | 32.96097 | 38.43714 | 36111 ft | 371 kts | 250° |
| 2026-05-04 18:05 | 32.93629 | 38.34985 | 36105 ft | 370 kts | 250° |
| 2026-05-04 18:05 | 32.91987 | 38.29189 | 36110 ft | 370 kts | 250° |
| 2026-05-04 18:06 | 32.89522 | 38.20511 | 36113 ft | 369 kts | 250° |
| 2026-05-04 18:06 | 32.87875 | 38.14727 | 36124 ft | 369 kts | 250° |
| 2026-05-04 18:07 | 32.86229 | 38.08954 | 36116 ft | 369 kts | 250° |
| 2026-05-04 18:07 | 32.84580 | 38.03186 | 36098 ft | 368 kts | 250° |
| 2026-05-04 18:08 | 32.82934 | 37.97435 | 36107 ft | 367 kts | 250° |
| 2026-05-04 18:08 | 32.81290 | 37.91694 | 36120 ft | 367 kts | 250° |
| 2026-05-04 18:09 | 32.78002 | 37.80270 | 36113 ft | 366 kts | 250° |
| 2026-05-04 18:10 | 32.76348 | 37.74544 | 36112 ft | 366 kts | 250° |
| 2026-05-04 18:10 | 32.74480 | 37.68933 | 36118 ft | 366 kts | 243° |
| 2026-05-04 18:11 | 32.71673 | 37.63892 | 36126 ft | 367 kts | 235° |
| 2026-05-04 18:11 | 32.68539 | 37.59085 | 36116 ft | 368 kts | 234° |
| 2026-05-04 18:12 | 32.65408 | 37.54274 | 36117 ft | 369 kts | 235° |
| 2026-05-04 18:12 | 32.62278 | 37.49450 | 36118 ft | 369 kts | 235° |
| 2026-05-04 18:13 | 32.59150 | 37.44628 | 36121 ft | 369 kts | 235° |
| 2026-05-04 18:14 | 32.54450 | 37.37389 | 36120 ft | 370 kts | 235° |
| 2026-05-04 18:14 | 32.51306 | 37.32555 | 36129 ft | 370 kts | 235° |
| 2026-05-04 18:15 | 32.48693 | 37.28540 | 36122 ft | 371 kts | 235° |